createdAt,value
2018-06-17T00:00:07.672Z,12.00
2018-06-17T00:02:36.367Z,22.73
2018-06-17T00:05:04.639Z,15.70
2018-06-17T00:07:32.983Z,16.87
2018-06-17T00:10:01.201Z,14.27
2018-06-17T00:12:29.413Z,15.97
2018-06-17T00:14:57.742Z,12.03
2018-06-17T00:17:25.903Z,15.47
2018-06-17T00:19:54.245Z,18.40
2018-06-17T00:22:25.305Z,13.83
2018-06-17T00:24:53.450Z,13.37
2018-06-17T00:27:21.661Z,13.30
2018-06-17T00:29:49.632Z,13.30
2018-06-17T00:32:17.851Z,16.53
2018-06-17T00:34:46.221Z,13.10
2018-06-17T00:37:14.415Z,13.10
2018-06-17T00:39:42.639Z,18.00
2018-06-17T00:42:10.867Z,12.80
2018-06-17T00:44:39.275Z,14.93
2018-06-17T00:47:07.457Z,19.30
2018-06-17T00:49:36.901Z,19.93
2018-06-17T00:52:05.375Z,11.97
2018-06-17T00:54:33.859Z,14.30
2018-06-17T00:58:14.290Z,14.63
2018-06-17T01:00:42.446Z,18.57
2018-06-17T01:03:10.639Z,15.17
2018-06-17T01:05:38.932Z,14.37
2018-06-17T01:08:07.092Z,11.87
2018-06-17T01:10:35.435Z,14.90
2018-06-17T01:13:03.626Z,12.67
2018-06-17T01:15:31.889Z,17.70
2018-06-17T01:18:01.010Z,13.33
2018-06-17T01:20:36.897Z,18.60
2018-06-17T01:23:05.147Z,16.93
2018-06-17T01:25:33.699Z,15.73
2018-06-17T01:28:01.948Z,16.20
2018-06-17T01:30:30.123Z,17.83
2018-06-17T01:32:58.538Z,14.53
2018-06-17T01:35:26.716Z,12.80
2018-06-17T01:37:56.054Z,17.53
2018-06-17T01:40:24.450Z,16.37
2018-06-17T01:42:52.732Z,14.00
2018-06-17T01:45:21.595Z,11.80
2018-06-17T01:47:50.148Z,14.53
2018-06-17T01:50:19.674Z,15.23
2018-06-17T01:52:48.452Z,19.30
2018-06-17T01:55:16.655Z,18.93
2018-06-17T01:57:44.964Z,16.83
2018-06-17T02:00:13.166Z,17.37
2018-06-17T02:02:44.125Z,14.97
2018-06-17T02:05:17.825Z,19.63
2018-06-17T02:07:52.014Z,17.40
2018-06-17T02:11:26.508Z,14.23
2018-06-17T02:13:58.476Z,18.43
2018-06-17T02:16:26.770Z,13.73
2018-06-17T02:18:54.958Z,16.10
2018-06-17T02:21:23.145Z,12.30
2018-06-17T02:23:52.384Z,18.80
2018-06-17T02:26:20.638Z,13.87
2018-06-17T02:28:48.788Z,15.20
2018-06-17T02:31:16.976Z,15.07
2018-06-17T02:33:45.117Z,13.13
2018-06-17T02:36:13.364Z,13.43
2018-06-17T02:38:41.592Z,16.87
2018-06-17T02:41:10.298Z,12.37
2018-06-17T02:43:38.746Z,15.40
2018-06-17T02:46:12.952Z,15.40
2018-06-17T02:48:48.026Z,14.80
2018-06-17T02:51:21.772Z,14.43
2018-06-17T02:53:55.500Z,20.60
2018-06-17T02:56:24.962Z,16.83
2018-06-17T02:58:53.285Z,18.07
2018-06-17T03:01:21.480Z,16.63
2018-06-17T03:03:49.741Z,18.10
2018-06-17T03:06:17.825Z,14.37
2018-06-17T03:08:46.230Z,17.57
2018-06-17T03:11:14.588Z,14.63
2018-06-17T03:13:42.979Z,15.83
2018-06-17T03:16:11.111Z,15.20
2018-06-17T03:18:39.292Z,15.40
2018-06-17T03:21:07.426Z,16.53
2018-06-17T03:23:36.149Z,16.63
2018-06-17T03:26:09.951Z,17.10
2018-06-17T03:28:43.417Z,26.50
2018-06-17T03:31:18.833Z,20.90
2018-06-17T03:33:51.962Z,17.90
2018-06-17T03:36:20.319Z,16.07
2018-06-17T03:38:48.525Z,16.63
2018-06-17T03:41:16.897Z,19.47
2018-06-17T03:43:45.088Z,16.73
2018-06-17T03:46:13.282Z,20.27
2018-06-17T03:48:41.481Z,16.00
2018-06-17T03:51:10.827Z,18.10
2018-06-17T03:53:39.099Z,20.27
2018-06-17T03:56:07.231Z,14.60
2018-06-17T03:58:35.377Z,15.00
2018-06-17T04:01:03.555Z,15.50
2018-06-17T04:03:31.725Z,17.67
2018-06-17T04:06:00.687Z,14.07
2018-06-17T04:08:29.869Z,15.50
2018-06-17T04:10:58.127Z,15.63
2018-06-17T04:13:26.331Z,18.50
2018-06-17T04:15:54.837Z,16.93
2018-06-17T04:18:22.949Z,17.10
2018-06-17T04:20:51.132Z,15.77
2018-06-17T04:23:19.409Z,16.80
2018-06-17T04:25:47.636Z,16.67
2018-06-17T04:28:15.749Z,24.83
2018-06-17T04:30:43.949Z,16.83
2018-06-17T04:33:12.094Z,15.10
2018-06-17T04:35:40.975Z,15.33
2018-06-17T04:38:09.148Z,15.70
2018-06-17T04:40:37.216Z,16.77
2018-06-17T04:43:05.381Z,22.33
2018-06-17T04:45:33.623Z,18.50
2018-06-17T04:48:02.185Z,20.47
2018-06-17T04:50:30.360Z,16.40
2018-06-17T04:52:58.512Z,16.93
2018-06-17T04:55:27.385Z,13.37
2018-06-17T04:57:55.602Z,13.10
2018-06-17T05:00:23.605Z,16.80
2018-06-17T05:02:51.904Z,13.10
2018-06-17T05:05:21.125Z,17.63
2018-06-17T05:07:49.287Z,14.03
2018-06-17T05:10:18.930Z,14.87
2018-06-17T05:12:47.158Z,20.73
2018-06-17T05:15:15.448Z,16.83
2018-06-17T05:17:43.743Z,14.67
2018-06-17T05:20:11.948Z,14.10
2018-06-17T05:22:40.258Z,14.63
2018-06-17T05:25:20.968Z,13.97
2018-06-17T05:27:49.130Z,19.00
2018-06-17T05:30:17.319Z,15.40
2018-06-17T05:32:46.226Z,14.40
2018-06-17T05:35:14.412Z,14.90
2018-06-17T05:37:42.890Z,18.30
2018-06-17T05:40:11.166Z,15.87
2018-06-17T05:42:39.376Z,15.33
2018-06-17T05:45:07.713Z,14.63
2018-06-17T05:47:35.984Z,12.00
2018-06-17T05:50:04.148Z,11.90
2018-06-17T05:52:33.330Z,11.70
2018-06-17T05:55:01.542Z,14.43
2018-06-17T05:57:29.759Z,12.23
2018-06-17T05:59:57.864Z,11.30
2018-06-17T06:02:26.047Z,11.60
2018-06-17T06:04:54.360Z,11.43
2018-06-17T06:07:23.655Z,10.97
2018-06-17T06:09:51.789Z,13.10
2018-06-17T06:12:19.998Z,12.60
2018-06-17T06:14:48.351Z,11.47
2018-06-17T06:17:17.955Z,14.00
2018-06-17T06:19:46.182Z,11.80
2018-06-17T06:22:14.460Z,13.00
2018-06-17T06:24:42.662Z,19.17
2018-06-17T06:27:10.809Z,9.30
2018-06-17T06:29:39.020Z,11.20
2018-06-17T06:32:07.362Z,9.00
2018-06-17T06:34:35.580Z,10.80
2018-06-17T06:37:03.779Z,10.80
2018-06-17T06:39:32.058Z,9.33
2018-06-17T06:42:00.267Z,11.30
2018-06-17T06:44:28.481Z,9.00
2018-06-17T06:46:56.772Z,11.60
2018-06-17T06:49:26.047Z,9.30
2018-06-17T06:51:54.323Z,11.30
2018-06-17T06:54:22.494Z,13.97
2018-06-17T06:56:50.660Z,14.10
2018-06-17T06:59:18.913Z,8.30
2018-06-17T07:01:59.536Z,9.77
2018-06-17T07:04:39.281Z,11.27
2018-06-17T07:07:19.047Z,9.83
2018-06-17T07:09:58.842Z,10.47
2018-06-17T07:12:27.025Z,9.47
2018-06-17T07:14:55.183Z,14.03
2018-06-17T07:17:35.918Z,9.13
2018-06-17T07:20:04.150Z,9.10
2018-06-17T07:22:32.385Z,7.20
2018-06-17T07:25:00.726Z,11.33
2018-06-17T07:27:40.449Z,7.27
2018-06-17T07:30:08.726Z,10.07
2018-06-17T07:32:37.044Z,7.43
2018-06-17T07:35:05.235Z,8.37
2018-06-17T07:37:33.529Z,12.50
2018-06-17T07:41:06.544Z,8.13
2018-06-17T07:43:34.796Z,10.33
2018-06-17T07:46:02.973Z,9.60
2018-06-17T07:49:45.429Z,7.60
2018-06-17T07:52:26.335Z,8.77
2018-06-17T07:54:54.575Z,10.47
2018-06-17T07:57:23.978Z,11.33
2018-06-17T07:59:53.953Z,9.47
2018-06-17T08:02:22.585Z,10.00
2018-06-17T08:04:51.044Z,9.50
2018-06-17T08:07:19.299Z,12.97
2018-06-17T08:09:47.507Z,9.53
2018-06-17T08:12:15.817Z,17.40
2018-06-17T08:14:46.691Z,10.30
2018-06-17T08:17:15.044Z,7.43
2018-06-17T08:19:43.278Z,8.43
2018-06-17T08:22:12.397Z,7.10
2018-06-17T08:24:40.569Z,9.00
2018-06-17T08:27:09.203Z,8.00
2018-06-17T08:29:37.403Z,15.87
2018-06-17T08:32:05.695Z,8.90
2018-06-17T08:34:34.815Z,8.07
2018-06-17T08:37:04.484Z,8.97
2018-06-17T08:39:32.767Z,15.30
2018-06-17T08:42:00.988Z,10.50
2018-06-17T08:44:31.544Z,9.43
2018-06-17T08:47:00.005Z,11.43
2018-06-17T08:49:28.896Z,6.50
2018-06-17T08:51:57.256Z,10.20
2018-06-17T08:54:25.674Z,13.03
2018-06-17T08:56:56.710Z,5.40
2018-06-17T08:59:25.184Z,7.97
2018-06-17T09:01:53.844Z,8.50
2018-06-17T09:04:22.301Z,10.70
2018-06-17T09:06:50.520Z,9.63
2018-06-17T09:09:18.704Z,5.57
2018-06-17T09:11:47.829Z,7.23
2018-06-17T09:14:17.570Z,7.03
2018-06-17T09:16:45.854Z,8.00
2018-06-17T09:19:14.787Z,6.93
2018-06-17T09:21:44.310Z,6.87
2018-06-17T09:24:12.466Z,9.70
2018-06-17T09:26:43.020Z,6.53
2018-06-17T09:29:11.350Z,6.40
2018-06-17T09:31:40.665Z,7.93
2018-06-17T09:34:09.056Z,8.90
2018-06-17T09:36:37.798Z,5.40
2018-06-17T09:39:08.542Z,4.30
2018-06-17T09:41:36.984Z,7.73
2018-06-17T09:44:05.837Z,4.00
2018-06-17T09:46:34.264Z,5.43
2018-06-17T09:49:03.653Z,11.23
2018-06-17T09:51:31.994Z,6.33
2018-06-17T09:54:00.274Z,9.23
2018-06-17T09:56:28.520Z,7.70
2018-06-17T09:58:57.786Z,6.00
2018-06-17T10:01:26.120Z,6.70
2018-06-17T10:03:54.541Z,3.60
2018-06-17T10:06:23.223Z,6.80
2018-06-17T10:08:51.782Z,5.80
2018-06-17T10:11:20.427Z,14.90
2018-06-17T10:13:54.875Z,5.13
2018-06-17T10:16:23.103Z,5.77
2018-06-17T10:18:51.813Z,7.63
2018-06-17T10:21:20.548Z,7.50
2018-06-17T10:23:49.185Z,6.63
2018-06-17T10:26:17.426Z,6.90
2018-06-17T10:28:47.536Z,5.53
2018-06-17T10:31:17.158Z,13.20
2018-06-17T10:33:45.298Z,3.80
2018-06-17T10:36:13.563Z,9.23
2018-06-17T10:38:41.769Z,6.50
2018-06-17T10:41:11.859Z,7.53
2018-06-17T10:43:40.076Z,3.70
2018-06-17T10:46:08.451Z,3.53
2018-06-17T10:48:36.440Z,7.47
2018-06-17T10:51:04.735Z,11.67
2018-06-17T10:53:32.908Z,17.40
2018-06-17T10:56:01.384Z,9.80
2018-06-17T10:58:30.337Z,6.07
2018-06-17T11:01:00.465Z,7.83
2018-06-17T11:03:29.553Z,3.13
2018-06-17T11:05:58.675Z,3.70
2018-06-17T11:08:27.060Z,6.93
2018-06-17T11:10:55.744Z,8.50
2018-06-17T11:13:24.049Z,8.10
2018-06-17T11:15:52.379Z,4.10
2018-06-17T11:18:21.873Z,6.27
2018-06-17T11:20:50.545Z,4.80
2018-06-17T11:23:20.659Z,4.50
2018-06-17T11:25:49.855Z,3.53
2018-06-17T11:28:18.823Z,6.27
2018-06-17T11:30:47.135Z,4.73
2018-06-17T11:33:16.257Z,5.87
2018-06-17T11:35:44.483Z,8.60
2018-06-17T11:38:12.806Z,4.13
2018-06-17T11:40:40.781Z,13.00
2018-06-17T11:43:09.466Z,6.20
2018-06-17T11:45:37.704Z,5.00
2018-06-17T11:48:06.602Z,7.63
2018-06-17T11:50:35.256Z,6.03
2018-06-17T11:53:03.523Z,8.27
2018-06-17T11:55:31.735Z,10.10
2018-06-17T11:57:59.904Z,4.13
2018-06-17T12:00:29.932Z,7.77
2018-06-17T12:02:59.168Z,5.57
2018-06-17T12:05:27.711Z,9.47
2018-06-17T12:07:56.072Z,10.10
2018-06-17T12:10:24.325Z,6.27
2018-06-17T12:12:52.993Z,6.50
2018-06-17T12:15:21.627Z,12.30
2018-06-17T12:17:50.393Z,10.57
2018-06-17T12:20:19.360Z,17.77
2018-06-17T12:22:47.516Z,5.53
2018-06-17T12:25:16.544Z,9.37
2018-06-17T12:27:45.985Z,5.50
2018-06-17T12:30:14.077Z,9.50
2018-06-17T12:32:43.613Z,6.80
2018-06-17T12:35:13.542Z,7.57
2018-06-17T12:37:41.754Z,6.00
2018-06-17T12:40:09.929Z,7.60
2018-06-17T12:42:38.145Z,7.50
2018-06-17T12:45:07.134Z,5.63
2018-06-17T12:47:35.411Z,8.73
2018-06-17T12:50:03.748Z,9.23
2018-06-17T12:52:33.358Z,8.30
2018-06-17T12:55:01.567Z,9.43
2018-06-17T12:57:29.772Z,9.90
2018-06-17T12:59:57.978Z,11.23
2018-06-17T13:02:26.191Z,5.80
2018-06-17T13:04:55.157Z,10.23
2018-06-17T13:07:23.416Z,6.40
2018-06-17T13:09:51.725Z,6.50
2018-06-17T13:12:21.277Z,8.20
2018-06-17T13:14:49.455Z,8.60
2018-06-17T13:17:17.848Z,7.33
2018-06-17T13:19:46.075Z,6.53
2018-06-17T13:22:14.276Z,9.50
2018-06-17T13:24:43.698Z,12.30
2018-06-17T13:27:12.372Z,12.77
2018-06-17T13:29:40.932Z,13.27
2018-06-17T13:32:09.739Z,6.07
2018-06-17T13:34:38.058Z,8.90
2018-06-17T13:37:06.872Z,11.83
2018-06-17T13:39:35.026Z,7.80
2018-06-17T13:42:03.181Z,5.57
2018-06-17T13:44:31.400Z,5.60
2018-06-17T13:46:59.573Z,9.30
2018-06-17T13:49:27.781Z,5.47
2018-06-17T13:51:56.168Z,4.37
2018-06-17T13:54:24.934Z,9.53
2018-06-17T13:56:53.342Z,8.33
2018-06-17T13:59:21.535Z,10.20
2018-06-17T14:01:50.304Z,9.03
2018-06-17T14:04:18.484Z,7.17
2018-06-17T14:06:47.938Z,6.10
2018-06-17T14:09:16.118Z,7.10
2018-06-17T14:11:47.062Z,10.60
2018-06-17T14:14:15.359Z,13.00
2018-06-17T14:16:43.918Z,5.20
2018-06-17T14:19:12.352Z,6.50
2018-06-17T14:21:41.331Z,7.53
2018-06-17T14:24:09.505Z,9.17
2018-06-17T14:26:37.627Z,6.17
2018-06-17T14:29:07.234Z,12.37
2018-06-17T14:31:35.583Z,5.77
2018-06-17T14:34:03.828Z,4.53
2018-06-17T14:36:31.999Z,7.33
2018-06-17T14:39:00.187Z,9.67
2018-06-17T14:41:28.437Z,7.83
2018-06-17T14:44:02.245Z,9.23
2018-06-17T14:46:35.925Z,3.83
2018-06-17T14:49:09.387Z,4.80
2018-06-17T14:51:43.198Z,7.07
2018-06-17T14:54:11.315Z,5.77
2018-06-17T14:56:39.483Z,5.67
2018-06-17T14:59:07.735Z,6.20
2018-06-17T15:01:35.874Z,6.73
2018-06-17T15:04:04.044Z,5.77
2018-06-17T15:06:32.186Z,11.73
2018-06-17T15:09:00.427Z,7.80
2018-06-17T15:11:29.331Z,4.87
2018-06-17T15:13:57.550Z,5.60
2018-06-17T15:16:25.519Z,3.23
2018-06-17T15:18:53.695Z,2.87
2018-06-17T15:21:21.851Z,5.40
2018-06-17T15:23:50.086Z,4.73
2018-06-17T15:26:20.722Z,6.57
2018-06-17T15:28:48.979Z,2.87
2018-06-17T15:31:22.584Z,2.80
2018-06-17T15:33:56.258Z,1.87
2018-06-17T15:36:29.847Z,2.10
2018-06-17T15:40:10.877Z,2.00
2018-06-17T15:42:40.017Z,2.20
2018-06-17T15:45:08.243Z,2.50
2018-06-17T15:47:36.393Z,2.23
2018-06-17T15:50:07.633Z,3.70
2018-06-17T15:52:36.315Z,3.83
2018-06-17T15:55:04.705Z,2.70
2018-06-17T15:57:35.771Z,3.10
2018-06-17T16:00:05.112Z,2.10
2018-06-17T16:02:33.315Z,3.03
2018-06-17T16:05:03.888Z,2.43
2018-06-17T16:07:32.080Z,1.93
2018-06-17T16:10:00.282Z,4.20
2018-06-17T16:12:34.002Z,1.90
2018-06-17T16:16:05.433Z,2.47
2018-06-17T16:18:39.151Z,2.83
2018-06-17T16:21:08.319Z,1.60
2018-06-17T16:23:36.564Z,1.53
2018-06-17T16:26:06.260Z,2.17
2018-06-17T16:28:34.404Z,6.03
2018-06-17T16:31:02.592Z,4.30
2018-06-17T16:33:30.776Z,1.70
2018-06-17T16:35:59.724Z,4.90
2018-06-17T16:38:27.943Z,2.00
2018-06-17T16:40:56.140Z,4.40
2018-06-17T16:43:24.324Z,1.50
2018-06-17T16:45:52.544Z,1.30
2018-06-17T16:48:20.774Z,3.60
2018-06-17T16:50:54.298Z,1.50
2018-06-17T16:53:27.887Z,1.50
2018-06-17T16:56:02.207Z,3.00
2018-06-17T16:58:35.674Z,1.60
2018-06-17T17:01:04.212Z,4.50
2018-06-17T17:03:32.536Z,15.20
2018-06-17T17:06:01.830Z,2.43
2018-06-17T17:08:30.064Z,6.87
2018-06-17T17:10:58.306Z,8.90
2018-06-17T17:13:26.554Z,2.10
2018-06-17T17:15:54.833Z,1.00
2018-06-17T17:18:24.089Z,1.43
2018-06-17T17:20:52.410Z,4.70
2018-06-17T17:23:20.597Z,2.50
2018-06-17T17:25:48.724Z,1.30
2018-06-17T17:28:16.751Z,2.20
2018-06-17T17:30:48.282Z,2.40
2018-06-17T17:33:22.004Z,2.87
2018-06-17T17:35:55.652Z,4.70
2018-06-17T17:38:32.942Z,1.57
2018-06-17T17:41:03.230Z,3.03
2018-06-17T17:43:31.424Z,4.43
2018-06-17T17:46:05.117Z,4.53
2018-06-17T17:48:33.260Z,1.80
2018-06-17T17:51:02.668Z,1.67
2018-06-17T17:53:31.174Z,2.70
2018-06-17T17:55:59.745Z,5.07
2018-06-17T17:58:28.248Z,2.17
2018-06-17T18:00:56.424Z,3.30
2018-06-17T18:03:24.768Z,5.73
2018-06-17T18:05:53.088Z,2.30
2018-06-17T18:08:21.564Z,3.60
2018-06-17T18:10:50.118Z,1.67
2018-06-17T18:13:18.592Z,6.17
2018-06-17T18:15:46.803Z,2.83
2018-06-17T18:18:14.986Z,1.87
2018-06-17T18:20:43.308Z,1.97
2018-06-17T18:23:11.448Z,2.87
2018-06-17T18:25:45.213Z,2.50
2018-06-17T18:28:18.832Z,3.57
2018-06-17T18:30:52.459Z,9.43
2018-06-17T18:33:26.088Z,5.60
2018-06-17T18:35:59.982Z,4.40
2018-06-17T18:38:28.156Z,8.90
2018-06-17T18:40:56.300Z,5.00
2018-06-17T18:43:24.515Z,1.80
2018-06-17T18:45:52.673Z,6.50
2018-06-17T18:48:20.850Z,1.50
2018-06-17T18:50:49.052Z,3.00
2018-06-17T18:53:23.102Z,1.70
2018-06-17T18:55:51.316Z,2.90
2018-06-17T18:58:20.064Z,8.87
2018-06-17T19:00:48.834Z,3.10
2018-06-17T19:03:17.099Z,4.97
2018-06-17T19:05:45.973Z,1.80
2018-06-17T19:08:19.751Z,4.07
2018-06-17T19:10:53.457Z,1.93
2018-06-17T19:13:27.021Z,2.30
2018-06-17T19:16:01.411Z,7.13
2018-06-17T19:18:29.592Z,4.27
2018-06-17T19:20:58.412Z,6.70
2018-06-17T19:23:27.319Z,3.63
2018-06-17T19:25:56.655Z,2.87
2018-06-17T19:28:24.895Z,4.17
2018-06-17T19:30:53.197Z,4.10
2018-06-17T19:33:22.077Z,4.03
2018-06-17T19:35:50.681Z,1.80
2018-06-17T19:38:18.955Z,4.83
2018-06-17T19:40:48.110Z,3.87
2018-06-17T19:43:16.412Z,2.03
2018-06-17T19:45:44.584Z,6.87
2018-06-17T19:48:12.735Z,3.47
2018-06-17T19:50:46.293Z,4.93
2018-06-17T19:53:20.105Z,3.07
2018-06-17T19:55:53.830Z,3.20
2018-06-17T19:58:27.531Z,4.03
2018-06-17T20:00:58.755Z,2.70
2018-06-17T20:03:27.227Z,3.00
2018-06-17T20:05:55.602Z,3.63
2018-06-17T20:08:23.879Z,2.40
2018-06-17T20:10:52.093Z,2.40
2018-06-17T20:13:20.329Z,2.10
2018-06-17T20:15:48.574Z,2.77
2018-06-17T20:18:16.766Z,3.40
2018-06-17T20:20:45.044Z,4.77
2018-06-17T20:23:13.646Z,3.90
2018-06-17T20:25:41.844Z,8.60
2018-06-17T20:28:10.013Z,5.00
2018-06-17T20:30:40.032Z,5.80
2018-06-17T20:33:13.529Z,3.20
2018-06-17T20:35:47.792Z,4.97
2018-06-17T20:38:21.676Z,2.80
2018-06-17T20:40:56.801Z,4.97
2018-06-17T20:43:30.417Z,3.37
2018-06-17T20:45:59.492Z,8.07
2018-06-17T20:48:28.176Z,5.37
2018-06-17T20:53:30.940Z,6.03
2018-06-17T20:55:59.368Z,2.97
2018-06-17T20:58:27.892Z,10.43
2018-06-17T21:00:56.249Z,6.77
2018-06-17T21:03:25.025Z,6.87
2018-06-17T21:05:53.517Z,4.33
2018-06-17T21:08:21.844Z,4.43
2018-06-17T21:10:49.992Z,4.63
2018-06-17T21:13:21.140Z,6.10
2018-06-17T21:15:49.932Z,3.50
2018-06-17T21:18:24.151Z,8.73
2018-06-17T21:20:57.740Z,2.47
2018-06-17T21:23:32.904Z,4.03
2018-06-17T21:26:06.620Z,3.90
2018-06-17T21:28:35.207Z,5.90
2018-06-17T21:31:06.578Z,3.40
2018-06-17T21:33:35.920Z,7.60
2018-06-17T21:36:04.294Z,4.20
2018-06-17T21:38:34.066Z,9.27
2018-06-17T21:41:02.254Z,4.10
2018-06-17T21:43:31.026Z,2.43
2018-06-17T21:45:59.720Z,3.23
2018-06-17T21:48:29.266Z,8.17
2018-06-17T21:50:57.531Z,4.13
2018-06-17T21:53:27.945Z,4.50
2018-06-17T21:55:56.464Z,4.67
2018-06-17T21:58:30.227Z,2.70
2018-06-17T22:00:58.690Z,5.60
2018-06-17T22:03:28.010Z,6.43
2018-06-17T22:05:57.923Z,4.47
2018-06-17T22:08:31.651Z,5.10
2018-06-17T22:11:05.295Z,16.13
2018-06-17T22:13:39.358Z,5.03
2018-06-17T22:16:13.076Z,6.30
2018-06-17T22:18:41.418Z,4.60
2018-06-17T22:21:09.912Z,4.73
2018-06-17T22:23:38.146Z,4.60
2018-06-17T22:26:08.164Z,5.70
2018-06-17T22:28:36.401Z,2.20
2018-06-17T22:31:04.641Z,3.63
2018-06-17T22:33:33.927Z,2.83
2018-06-17T22:36:02.111Z,2.80
2018-06-17T22:38:30.336Z,5.70
2018-06-17T22:40:59.694Z,4.23
2018-06-17T22:43:28.686Z,12.60
2018-06-17T22:45:56.854Z,3.67
2018-06-17T22:48:24.988Z,8.47
2018-06-17T22:50:53.134Z,6.80
2018-06-17T22:53:32.822Z,3.87
2018-06-17T22:56:01.159Z,8.63
2018-06-17T22:59:38.441Z,3.50
2018-06-17T23:02:12.028Z,8.67
2018-06-17T23:04:46.176Z,3.00
2018-06-17T23:07:19.756Z,2.50
2018-06-17T23:09:49.179Z,7.63
2018-06-17T23:12:17.391Z,6.50
2018-06-17T23:14:45.601Z,5.10
2018-06-17T23:17:13.840Z,2.93
2018-06-17T23:19:42.382Z,4.60
2018-06-17T23:22:10.498Z,7.03
2018-06-17T23:24:38.670Z,5.77
2018-06-17T23:27:06.854Z,12.57
2018-06-17T23:29:35.148Z,3.80
2018-06-17T23:32:03.466Z,5.57
2018-06-17T23:34:31.640Z,2.80
2018-06-17T23:36:59.878Z,3.30
2018-06-17T23:39:28.781Z,9.93
2018-06-17T23:41:56.961Z,3.07
2018-06-17T23:44:25.156Z,3.50
2018-06-17T23:46:58.738Z,8.90
2018-06-17T23:49:33.558Z,4.73
2018-06-17T23:53:07.809Z,10.70
2018-06-17T23:55:41.619Z,4.37
2018-06-17T23:58:09.872Z,6.27
